Time;durP1;ratioP1;P1;durP2;ratioP2;P2;SDS_P1;SDS_P2;PMS_P1;PMS_P2;Temp;Humidity;BMP_temperature;BMP_pressure;BME280_temperature;BME280_humidity;BME280_pressure;Samples;Min_cycle;Max_cycle;Signal;HPM_P1;HPM_P2
2021/01/20 00:00:15;;;;;;;40.85;18.67;;;;;;;-3.15;88.65;98004.84;4929191;29;20028;-80
2021/01/20 00:02:41;;;;;;;36.15;14.98;;;;;;;-3.22;88.46;98029.25;4929065;29;20059;-80
2021/01/20 00:05:08;;;;;;;43.33;13.38;;;;;;;-3.27;88.18;98020.56;4919214;29;20028;-80
2021/01/20 00:07:33;;;;;;;35.05;14.18;;;;;;;-3.35;87.69;98025.78;4919393;29;20027;-79
2021/01/20 00:09:59;;;;;;;35.67;14.27;;;;;;;-3.35;89.12;98033.63;4950367;29;20035;-79
2021/01/20 00:12:25;;;;;;;32.78;13.25;;;;;;;-3.30;89.56;98025.78;4931296;29;20024;-80
2021/01/20 00:14:50;;;;;;;36.70;14.82;;;;;;;-3.34;89.80;98044.94;4945144;29;20141;-81
2021/01/20 00:17:16;;;;;;;28.65;12.43;;;;;;;-3.37;89.97;98024.03;4926105;29;20031;-80
2021/01/20 00:19:42;;;;;;;33.10;13.57;;;;;;;-3.34;89.59;98034.50;4930014;29;20039;-79
2021/01/20 00:22:10;;;;;;;36.15;13.95;;;;;;;-3.36;89.80;98031.03;4918280;29;20028;-81
2021/01/20 00:24:37;;;;;;;36.38;13.02;;;;;;;-3.39;89.79;98036.25;4918024;29;20047;-80
2021/01/20 00:27:04;;;;;;;31.50;11.93;;;;;;;-3.45;90.32;98031.91;4949699;29;20481;-81
2021/01/20 00:29:29;;;;;;;43.80;16.02;;;;;;;-3.46;89.98;98022.28;4914992;29;20064;-80
2021/01/20 00:31:55;;;;;;;40.65;16.30;;;;;;;-3.50;90.31;98019.66;4925293;29;20028;-81
2021/01/20 00:34:21;;;;;;;35.67;13.65;;;;;;;-3.63;90.56;98017.94;4930054;29;20054;-80
2021/01/20 00:36:46;;;;;;;39.72;13.35;;;;;;;-3.72;91.12;98010.09;4918333;29;20080;-81
2021/01/20 00:39:12;;;;;;;35.70;13.80;;;;;;;-3.68;91.43;98006.56;4910428;29;20039;-80
2021/01/20 00:41:37;;;;;;;39.55;15.30;;;;;;;-3.73;91.63;98008.31;4929824;29;20072;-80
2021/01/20 00:44:04;;;;;;;47.30;13.98;;;;;;;-3.72;91.63;98004.84;4929698;29;20100;-80
2021/01/20 00:46:30;;;;;;;38.60;14.68;;;;;;;-3.82;91.56;98011.81;4933790;29;20178;-80
2021/01/20 00:48:56;;;;;;;33.55;14.38;;;;;;;-3.79;91.70;98013.53;4929855;29;20118;-81
2021/01/20 00:51:21;;;;;;;35.65;14.88;;;;;;;-3.77;91.27;98003.97;4920619;29;20036;-80
2021/01/20 00:53:47;;;;;;;36.28;13.43;;;;;;;-3.77;91.07;98007.44;4927316;29;20028;-81
2021/01/20 00:56:12;;;;;;;42.70;17.02;;;;;;;-3.84;91.27;98011.78;4917592;29;20123;-81
2021/01/20 00:58:38;;;;;;;49.42;20.25;;;;;;;-3.88;92.43;98010.06;4925936;29;20099;-81
2021/01/20 01:01:04;;;;;;;86.82;35.53;;;;;;;-3.74;91.41;98001.34;4910836;29;20031;-82
2021/01/20 01:03:30;;;;;;;119.35;42.22;;;;;;;-3.76;91.94;98003.97;4938009;29;20038;-80
2021/01/20 01:05:55;;;;;;;79.75;30.20;;;;;;;-3.73;91.75;98003.09;4935892;29;20114;-82
2021/01/20 01:08:22;;;;;;;73.88;30.70;;;;;;;-3.62;91.08;98006.59;4929666;29;20036;-82
2021/01/20 01:10:48;;;;;;;56.45;22.08;;;;;;;-3.57;90.50;98004.88;4917882;29;20472;-81
2021/01/20 01:13:13;;;;;;;74.20;29.65;;;;;;;-3.58;90.18;98006.59;4921970;29;20103;-81
2021/01/20 01:15:39;;;;;;;45.65;20.23;;;;;;;-3.60;90.05;98004.88;4918570;29;20032;-81
2021/01/20 01:18:05;;;;;;;59.80;24.38;;;;;;;-3.53;89.72;97996.13;4918321;29;20069;-79
2021/01/20 01:20:47;;;;;;;55.78;24.13;;;;;;;-3.47;90.02;98006.59;4928492;29;20039;-80
2021/01/20 01:23:12;;;;;;;64.45;26.35;;;;;;;-3.66;90.26;97974.34;4941471;29;20027;-79
2021/01/20 01:25:38;;;;;;;67.65;28.73;;;;;;;-3.51;89.72;98010.09;4917516;29;20099;-80
2021/01/20 01:28:13;;;;;;;59.38;24.30;;;;;;;-3.47;89.49;97996.13;4925577;29;20055;-81
2021/01/20 01:30:39;;;;;;;61.03;23.90;;;;;;;-3.45;89.25;97982.22;4918119;29;20031;-81
2021/01/20 01:33:05;;;;;;;51.08;22.48;;;;;;;-3.48;90.32;97991.81;4948912;29;20492;-80
2021/01/20 01:35:31;;;;;;;63.25;26.55;;;;;;;-3.53;89.64;97989.16;4941607;29;20118;-81
2021/01/20 01:37:57;;;;;;;57.67;23.63;;;;;;;-3.55;89.34;97976.97;4904986;29;20094;-79
2021/01/20 01:40:22;;;;;;;57.00;23.35;;;;;;;-3.53;89.54;97977.84;4923140;29;20031;-75
2021/01/20 01:42:48;;;;;;;65.18;26.05;;;;;;;-3.52;89.34;97984.81;4926590;29;20608;-78
2021/01/20 01:45:13;;;;;;;50.53;21.00;;;;;;;-3.70;89.56;97969.13;4917307;29;20055;-80
2021/01/20 01:47:39;;;;;;;40.92;18.30;;;;;;;-3.67;89.66;97967.41;4918229;29;20032;-76
2021/01/20 01:50:06;;;;;;;35.75;16.30;;;;;;;-3.50;89.79;97954.31;4919091;29;20119;-81
2021/01/20 01:52:35;;;;;;;38.75;16.42;;;;;;;-3.51;89.27;97963.03;4915028;29;20394;-76
2021/01/20 01:55:00;;;;;;;26.27;12.48;;;;;;;-3.37;89.40;97967.38;4940481;29;20028;-77
2021/01/20 01:57:26;;;;;;;31.60;13.30;;;;;;;-3.42;88.63;97963.03;4931564;29;20035;-80
2021/01/20 01:59:52;;;;;;;26.20;11.63;;;;;;;-3.37;88.48;97972.63;4915746;29;20050;-81
2021/01/20 02:02:17;;;;;;;37.30;16.42;;;;;;;-3.40;88.66;97970.00;4930223;29;20032;-80
2021/01/20 02:04:43;;;;;;;37.78;15.75;;;;;;;-3.36;88.62;97969.16;4929616;29;20522;-81
2021/01/20 02:07:10;;;;;;;41.30;17.48;;;;;;;-3.22;88.43;97974.34;4914199;29;20119;-80
2021/01/20 02:09:35;;;;;;;47.83;18.80;;;;;;;-3.25;88.08;97987.41;4914017;29;20091;-80
2021/01/20 02:12:16;;;;;;;28.23;12.02;;;;;;;-3.14;87.80;97993.53;4929972;29;20028;-80
2021/01/20 02:14:54;;;;;;;50.40;19.13;;;;;;;-2.99;86.78;97969.97;4924996;29;20495;-80
2021/01/20 02:17:34;;;;;;;51.90;21.70;;;;;;;-2.97;86.30;97993.47;4933975;29;20480;-80
2021/01/20 02:20:02;;;;;;;51.05;21.85;;;;;;;-2.85;86.48;97989.09;4925345;29;20488;-80
2021/01/20 02:22:32;;;;;;;97.40;34.22;;;;;;;-2.78;86.08;97990.84;4934297;29;20115;-81
2021/01/20 02:25:31;;;;;;;72.63;26.15;;;;;;;-2.68;86.17;97985.56;4933154;29;20070;-81
2021/01/20 02:28:15;;;;;;;49.17;20.13;;;;;;;-2.53;84.80;97977.66;4949339;29;20134;-80
2021/01/20 02:30:43;;;;;;;62.20;24.25;;;;;;;-2.36;83.58;97978.47;4954470;28;20396;-80
2021/01/20 02:33:10;;;;;;;60.20;25.38;;;;;;;-2.27;82.60;97963.56;4920257;29;20118;-81
2021/01/20 02:35:38;;;;;;;73.80;28.50;;;;;;;-2.17;82.73;97961.78;4952339;29;20030;-81
2021/01/20 02:38:04;;;;;;;62.83;25.77;;;;;;;-2.17;83.03;97963.53;4936301;29;20027;-80
2021/01/20 02:40:30;;;;;;;78.95;29.67;;;;;;;-2.13;82.57;97954.78;4936090;29;21240;-80
2021/01/20 02:42:56;;;;;;;68.05;27.02;;;;;;;-2.03;82.24;97961.72;4904406;29;20055;-80
2021/01/20 02:45:21;;;;;;;53.92;22.98;;;;;;;-1.99;81.29;97964.28;4936309;29;20118;-80
2021/01/20 02:47:48;;;;;;;72.18;28.42;;;;;;;-1.99;81.66;97966.91;4920386;29;20032;-81
2021/01/20 02:50:14;;;;;;;64.78;27.52;;;;;;;-1.94;81.86;97967.78;4919111;29;20125;-81
2021/01/20 02:52:39;;;;;;;63.20;26.40;;;;;;;-1.99;81.88;97973.91;4933145;29;20119;-80
2021/01/20 02:55:07;;;;;;;47.15;19.75;;;;;;;-1.96;81.37;97972.13;4935992;29;20038;-80
2021/01/20 02:57:35;;;;;;;74.05;25.80;;;;;;;-1.91;80.81;97964.25;4924183;29;20038;-82
2021/01/20 03:00:01;;;;;;;62.70;25.35;;;;;;;-1.90;80.52;97964.22;4916745;29;20480;-80
2021/01/20 03:02:28;;;;;;;38.15;15.82;;;;;;;-1.55;75.96;97976.22;4916693;29;20063;-80
2021/01/20 03:04:57;;;;;;;48.42;19.30;;;;;;;-1.51;76.56;97967.47;4932596;29;20035;-81
2021/01/20 03:07:22;;;;;;;41.47;17.95;;;;;;;-1.52;76.83;97965.72;4922381;29;20036;-80
2021/01/20 03:09:48;;;;;;;66.95;26.13;;;;;;;-1.59;78.27;97974.50;4903043;29;20028;-81
2021/01/20 03:12:14;;;;;;;72.68;30.38;;;;;;;-1.66;79.04;97963.19;4908617;29;20036;-80
2021/01/20 03:14:41;;;;;;;49.00;22.85;;;;;;;-1.70;79.49;97975.47;4935590;29;20472;-80
2021/01/20 03:17:07;;;;;;;74.93;30.63;;;;;;;-1.72;79.37;97974.59;4935588;29;20036;-80
2021/01/20 03:19:32;;;;;;;71.97;28.55;;;;;;;-1.76;78.69;97972.88;4929025;29;20114;-80
2021/01/20 03:21:58;;;;;;;79.78;28.30;;;;;;;-1.75;79.37;97974.59;4916366;29;20044;-81
2021/01/20 03:24:23;;;;;;;71.30;29.75;;;;;;;-1.79;79.31;97961.56;4932393;29;20064;-80
2021/01/20 03:26:49;;;;;;;62.72;25.00;;;;;;;-1.79;79.99;97964.19;4915630;29;20039;-80
2021/01/20 03:29:15;;;;;;;104.95;43.42;;;;;;;-1.85;79.38;97956.34;4928254;29;20043;-81
2021/01/20 03:31:40;;;;;;;93.40;37.63;;;;;;;-1.87;80.22;97968.56;4931773;29;20024;-80
2021/01/20 03:34:06;;;;;;;63.10;28.02;;;;;;;-1.89;79.21;97962.50;4922308;29;20043;-80
2021/01/20 03:36:31;;;;;;;66.57;27.98;;;;;;;-1.58;76.35;97965.75;4934953;29;20112;-80
2021/01/20 03:38:57;;;;;;;57.30;22.42;;;;;;;-1.54;75.99;97964.88;4919418;29;20460;-80
2021/01/20 03:41:23;;;;;;;93.18;33.55;;;;;;;-1.41;74.85;97974.34;4919160;29;20035;-80
2021/01/20 03:43:48;;;;;;;43.72;17.17;;;;;;;-1.38;74.28;97969.09;4934933;29;20397;-80
2021/01/20 03:46:14;;;;;;;37.38;13.73;;;;;;;-1.16;72.70;97968.03;4934993;29;20038;-79
2021/01/20 03:48:39;;;;;;;22.63;9.23;;;;;;;-0.93;71.83;97979.19;4900601;29;20040;-80
2021/01/20 03:51:05;;;;;;;25.88;11.05;;;;;;;-0.78;70.72;97975.53;4900436;29;20020;-80
2021/01/20 03:53:30;;;;;;;44.33;17.58;;;;;;;-0.76;70.61;97966.75;4913109;29;20118;-80
2021/01/20 03:55:56;;;;;;;23.98;9.45;;;;;;;-0.57;69.08;97963.03;4918631;29;20087;-80
2021/01/20 03:58:21;;;;;;;8.55;4.55;;;;;;;-0.18;67.38;97963.41;4915940;29;20484;-80
2021/01/20 04:00:47;;;;;;;8.57;4.30;;;;;;;0.21;64.85;97964.63;4915768;29;20036;-82
2021/01/20 04:03:12;;;;;;;22.23;8.07;;;;;;;0.41;64.53;97958.19;4934088;29;20058;-80
2021/01/20 04:05:38;;;;;;;18.23;7.05;;;;;;;0.55;64.63;97971.13;4934631;29;20471;-80
2021/01/20 04:08:04;;;;;;;41.65;15.35;;;;;;;0.61;63.33;97962.28;4934647;29;20031;-80
2021/01/20 04:10:29;;;;;;;48.85;14.90;;;;;;;0.79;62.41;97964.59;4919064;29;20054;-80
2021/01/20 04:12:55;;;;;;;49.80;14.85;;;;;;;0.84;62.23;97962.75;4951026;29;20024;-80
2021/01/20 04:15:21;;;;;;;54.38;17.70;;;;;;;0.93;62.19;97973.13;4934692;29;20519;-80
2021/01/20 04:17:46;;;;;;;41.80;13.65;;;;;;;1.01;60.16;97971.25;4934535;29;20102;-80
2021/01/20 04:20:12;;;;;;;28.42;9.63;;;;;;;1.13;60.09;97978.91;4934662;29;20040;-80
2021/01/20 04:22:38;;;;;;;26.92;9.38;;;;;;;1.12;60.45;97973.66;4932981;29;20038;-80
2021/01/20 04:25:04;;;;;;;15.98;7.43;;;;;;;1.19;59.64;97984.06;4915920;29;20056;-80
2021/01/20 04:27:33;;;;;;;15.93;7.68;;;;;;;1.18;60.09;97978.81;4915377;29;20043;-81
2021/01/20 04:29:59;;;;;;;18.92;9.35;;;;;;;1.12;59.89;97984.19;4915656;29;20039;-81
2021/01/20 04:32:24;;;;;;;43.17;20.25;;;;;;;1.04;62.10;97998.41;4918643;29;20031;-82
2021/01/20 04:34:50;;;;;;;43.55;19.48;;;;;;;0.93;65.27;97994.19;4933809;29;20476;-85
2021/01/20 04:37:16;;;;;;;37.75;18.00;;;;;;;0.82;65.46;97988.22;4920335;29;20032;-90
2021/01/20 04:39:41;;;;;;;39.15;17.83;;;;;;;0.74;64.72;97998.88;4906670;29;20114;-80
2021/01/20 04:42:07;;;;;;;38.88;18.00;;;;;;;0.76;65.04;98007.63;4918352;29;20032;-77
2021/01/20 04:44:33;;;;;;;78.57;33.58;;;;;;;0.72;65.99;98016.47;4945213;29;20561;-77
2021/01/20 04:47:03;;;;;;;59.33;25.02;;;;;;;0.65;66.37;98020.06;4933931;29;20476;-83
2021/01/20 04:49:29;;;;;;;34.22;14.13;;;;;;;0.69;63.80;98016.50;4931303;29;20047;-80
2021/01/20 04:51:56;;;;;;;21.75;9.23;;;;;;;0.78;61.55;98008.47;4915518;29;20028;-80
2021/01/20 04:54:22;;;;;;;33.40;14.30;;;;;;;0.92;62.02;98019.63;4915339;29;20588;-80
2021/01/20 04:56:49;;;;;;;31.05;15.05;;;;;;;1.00;64.64;98006.34;4899463;29;20032;-79
2021/01/20 04:59:15;;;;;;;36.35;17.83;;;;;;;0.92;65.28;98009.09;4932120;29;20036;-82
2021/01/20 05:01:41;;;;;;;37.70;19.42;;;;;;;0.85;65.67;98010.13;4882617;28;20048;-79
2021/01/20 05:04:07;;;;;;;51.55;25.65;;;;;;;0.75;67.12;98020.81;4915263;29;20043;-80
2021/01/20 05:06:33;;;;;;;66.10;32.83;;;;;;;0.64;67.66;98028.00;4915848;29;20036;-81
2021/01/20 05:08:58;;;;;;;286.75;119.38;;;;;;;0.44;67.92;98004.63;4919102;29;20032;-80
2021/01/20 05:11:42;;;;;;;376.40;155.13;;;;;;;0.37;69.46;98029.28;4918287;29;20043;-80
2021/01/20 05:14:15;;;;;;;116.97;48.58;;;;;;;0.37;69.20;98032.78;4941482;29;20035;-81
2021/01/20 05:16:42;;;;;;;127.18;53.10;;;;;;;0.21;69.66;98031.25;4922696;29;20039;-84
2021/01/20 05:19:09;;;;;;;115.72;47.70;;;;;;;0.11;70.68;98032.28;4910056;29;20106;-81
2021/01/20 05:21:35;;;;;;;117.32;46.25;;;;;;;0.00;71.41;98023.66;4920025;29;20027;-80
2021/01/20 05:24:30;;;;;;;115.50;49.25;;;;;;;0.04;71.66;98041.13;4918388;29;20051;-81
2021/01/20 05:26:56;;;;;;;100.68;45.42;;;;;;;-0.03;71.83;98035.06;4899694;29;20095;-81
2021/01/20 05:29:21;;;;;;;151.90;63.10;;;;;;;-0.09;71.83;98036.88;4932901;29;20027;-81
2021/01/20 05:31:47;;;;;;;129.30;48.22;;;;;;;-0.12;71.89;98043.06;4922248;29;20031;-81
2021/01/20 05:34:34;;;;;;;105.63;40.47;;;;;;;-0.05;72.53;98042.09;4924238;29;20471;-81
2021/01/20 05:37:07;;;;;;;143.88;50.97;;;;;;;-0.15;73.95;98039.59;4914726;29;20113;-81
2021/01/20 05:39:36;;;;;;;120.03;48.50;;;;;;;-0.24;73.69;98048.47;4915697;29;20210;-80
2021/01/20 05:42:07;;;;;;;192.68;69.28;;;;;;;-0.33;73.77;98055.56;4943579;29;20488;-79
2021/01/20 05:44:33;;;;;;;215.60;78.13;;;;;;;-0.23;73.91;98060.72;4940797;29;20072;-79
2021/01/20 05:47:06;;;;;;;142.98;52.85;;;;;;;-0.22;73.59;98074.75;4928934;29;20423;-79
2021/01/20 05:49:32;;;;;;;174.13;62.25;;;;;;;-0.22;73.86;98064.22;4950027;28;20027;-81
2021/01/20 05:51:57;;;;;;;157.02;63.17;;;;;;;-0.28;74.63;98065.19;4922613;29;20114;-79
2021/01/20 05:54:35;;;;;;;202.93;78.50;;;;;;;-0.30;74.96;98071.31;4920008;29;20032;-80
2021/01/20 05:57:20;;;;;;;181.48;77.85;;;;;;;-0.37;75.42;98056.53;4946601;29;20072;-81
2021/01/20 05:59:48;;;;;;;157.38;66.00;;;;;;;-0.34;75.48;98061.75;4933831;29;20031;-81
2021/01/20 06:02:14;;;;;;;153.38;62.92;;;;;;;-0.31;75.53;98048.56;4924725;29;20020;-80
2021/01/20 06:04:41;;;;;;;78.28;33.88;;;;;;;-0.16;74.28;98064.16;4928742;29;20481;-80
2021/01/20 06:07:11;;;;;;;104.10;46.25;;;;;;;-0.16;73.68;98065.03;4920391;29;20042;-80
2021/01/20 06:09:39;;;;;;;157.18;69.75;;;;;;;-0.10;74.01;98059.72;4923406;29;20034;-80
2021/01/20 06:12:10;;;;;;;149.10;68.05;;;;;;;-0.01;74.05;98058.72;4928764;29;20068;-81
2021/01/20 06:14:37;;;;;;;210.02;91.97;;;;;;;0.11;74.18;98063.81;4934230;29;20055;-81
2021/01/20 06:17:23;;;;;;;145.85;56.97;;;;;;;0.16;72.56;98059.38;4950810;29;20035;-80
2021/01/20 06:20:01;;;;;;;129.15;55.65;;;;;;;0.29;72.90;98062.72;4928563;29;20036;-81
2021/01/20 06:22:30;;;;;;;61.95;23.48;;;;;;;0.46;70.02;98045.78;4929426;29;20059;-81
2021/01/20 06:25:04;;;;;;;79.45;33.80;;;;;;;0.67;70.82;98064.81;4919998;29;20123;-81
2021/01/20 06:27:46;;;;;;;64.38;27.73;;;;;;;0.82;67.39;98054.94;4925085;29;20028;-80
2021/01/20 06:30:26;;;;;;;74.07;31.88;;;;;;;1.10;67.74;98065.88;4917404;29;20036;-81
2021/01/20 06:32:53;;;;;;;100.32;43.78;;;;;;;1.31;65.78;98065.53;4924544;29;20024;-81
2021/01/20 06:35:18;;;;;;;72.03;30.52;;;;;;;1.36;66.14;98062.81;4956482;28;20056;-81
2021/01/20 06:37:46;;;;;;;91.47;34.05;;;;;;;1.34;67.18;98070.75;4915114;29;20492;-81
2021/01/20 06:40:17;;;;;;;69.30;31.35;;;;;;;1.40;67.78;98068.00;4911968;29;20071;-80
2021/01/20 06:42:44;;;;;;;73.47;31.97;;;;;;;1.41;68.64;98072.38;4938997;29;20028;-81
2021/01/20 06:45:26;;;;;;;78.45;35.55;;;;;;;1.49;68.30;98082.78;4928556;29;20076;-80
2021/01/20 06:48:01;;;;;;;95.68;37.83;;;;;;;1.52;66.76;98072.19;4912977;29;20345;-81
2021/01/20 06:50:53;;;;;;;80.32;33.78;;;;;;;1.68;63.89;98070.13;4926006;29;20040;-81
2021/01/20 06:53:19;;;;;;;226.38;92.07;;;;;;;1.94;64.06;98071.38;4920396;29;20039;-81
2021/01/20 06:55:45;;;;;;;206.23;83.78;;;;;;;2.16;63.40;98085.88;4922468;29;20040;-81
2021/01/20 06:58:19;;;;;;;103.93;43.17;;;;;;;2.45;60.80;98081.78;4951235;29;20032;-81
2021/01/20 07:01:11;;;;;;;37.88;18.33;;;;;;;2.77;59.08;98070.53;4921770;29;20107;-82
2021/01/20 07:03:59;;;;;;;40.10;18.83;;;;;;;2.97;57.92;98087.63;4921878;29;20044;-82
2021/01/20 07:06:37;;;;;;;29.73;12.68;;;;;;;3.27;57.58;98081.63;4932031;29;20036;-81
2021/01/20 07:09:11;;;;;;;39.00;14.25;;;;;;;3.49;56.57;98087.25;4924730;29;20032;-82
2021/01/20 07:11:55;;;;;;;38.85;17.67;;;;;;;3.73;55.81;98089.25;4951382;29;20503;-81
2021/01/20 07:14:33;;;;;;;38.30;18.30;;;;;;;3.92;55.15;98076.41;4927754;29;20515;-82
2021/01/20 07:16:59;;;;;;;44.90;21.20;;;;;;;4.11;54.48;98093.53;4927942;29;20035;-82
2021/01/20 07:19:26;;;;;;;47.63;23.27;;;;;;;4.32;53.42;98097.34;4935219;29;20047;-81
2021/01/20 07:21:52;;;;;;;55.80;27.85;;;;;;;4.58;54.27;98105.41;4927639;29;20507;-82
2021/01/20 07:24:18;;;;;;;94.55;44.38;;;;;;;4.83;52.55;98106.41;4919479;29;20043;-82
2021/01/20 07:26:44;;;;;;;61.53;31.88;;;;;;;5.08;52.20;98110.94;4930171;29;20406;-82
2021/01/20 07:29:30;;;;;;;72.40;37.17;;;;;;;5.70;51.55;98107.13;4948573;29;20031;-81
2021/01/20 07:31:56;;;;;;;87.90;43.13;;;;;;;6.44;49.08;98111.63;4950802;29;20487;-82
2021/01/20 07:34:22;;;;;;;81.63;42.65;;;;;;;7.22;47.81;98120.19;4932735;29;20046;-82
2021/01/20 07:36:48;;;;;;;61.03;30.92;;;;;;;7.96;47.23;98119.78;4937835;29;20111;-81
2021/01/20 07:39:26;;;;;;;79.43;35.13;;;;;;;8.21;46.38;98123.13;4926002;29;20412;-81
2021/01/20 07:41:52;;;;;;;80.68;37.75;;;;;;;8.96;43.04;98112.63;4929401;29;20055;-81
2021/01/20 07:44:19;;;;;;;69.25;33.80;;;;;;;8.50;44.75;98113.88;4926748;29;20027;-82
2021/01/20 07:46:44;;;;;;;59.28;29.42;;;;;;;8.56;43.89;98109.13;4929550;29;20441;-81
2021/01/20 07:49:13;;;;;;;73.25;36.60;;;;;;;9.19;42.72;98115.97;4923823;29;20107;-81
2021/01/20 07:51:39;;;;;;;111.97;37.80;;;;;;;9.77;40.65;98113.16;4946564;29;20020;-82
2021/01/20 07:54:06;;;;;;;38.45;16.05;;;;;;;10.73;38.69;98111.75;4931471;29;20111;-82
2021/01/20 07:56:35;;;;;;;68.97;33.65;;;;;;;12.16;37.14;98107.19;4954973;28;20512;-82
2021/01/20 07:59:15;;;;;;;49.03;24.35;;;;;;;12.57;36.57;98107.38;4939233;29;20461;-82
2021/01/20 08:01:41;;;;;;;30.92;14.93;;;;;;;12.16;36.13;98112.53;4927686;29;20455;-82
2021/01/20 08:04:22;;;;;;;18.13;10.30;;;;;;;11.97;35.02;98114.59;4926490;29;20032;-82
2021/01/20 08:06:48;;;;;;;12.15;6.28;;;;;;;11.53;35.20;98112.63;4921641;29;20138;-82
2021/01/20 08:09:14;;;;;;;52.40;12.88;;;;;;;10.96;37.15;98130.09;4955679;28;20031;-82
2021/01/20 08:11:44;;;;;;;51.85;23.42;;;;;;;11.46;36.53;98123.75;4922627;29;20024;-81
2021/01/20 08:14:11;;;;;;;45.70;19.33;;;;;;;11.66;36.71;98128.88;4930669;29;20122;-81
2021/01/20 08:16:38;;;;;;;25.10;10.43;;;;;;;10.79;37.04;98127.47;4926474;29;20039;-81
2021/01/20 08:19:05;;;;;;;31.77;16.73;;;;;;;11.07;36.70;98127.72;4934347;29;20031;-82
2021/01/20 08:21:32;;;;;;;49.45;20.35;;;;;;;11.35;37.61;98132.41;4933833;29;20556;-83
2021/01/20 08:24:00;;;;;;;27.23;13.20;;;;;;;11.28;37.22;98145.28;4928034;29;20099;-82
2021/01/20 08:26:33;;;;;;;12.98;7.38;;;;;;;11.32;36.33;98121.88;4946508;29;20122;-82
2021/01/20 08:29:06;;;;;;;19.55;8.63;;;;;;;10.93;37.68;98140.97;4921374;29;20028;-82
2021/01/20 08:31:32;;;;;;;45.72;18.50;;;;;;;10.87;38.15;98128.78;4923700;29;20496;-83
2021/01/20 08:34:21;;;;;;;30.73;13.95;;;;;;;10.35;39.49;98137.81;4939366;29;20092;-82
2021/01/20 08:37:04;;;;;;;29.83;11.82;;;;;;;10.48;39.02;98133.56;4915858;29;20477;-81
2021/01/20 08:39:31;;;;;;;34.78;15.18;;;;;;;10.42;39.23;98128.53;4940396;29;20072;-82
2021/01/20 08:42:22;;;;;;;37.28;14.35;;;;;;;10.96;37.89;98114.03;4905401;29;20036;-83
2021/01/20 08:45:13;;;;;;;9.90;5.78;;;;;;;10.77;36.73;98113.28;4927353;29;20416;-82
2021/01/20 08:48:02;;;;;;;26.70;9.93;;;;;;;10.79;37.80;98114.97;4938741;29;20125;-82
2021/01/20 08:50:27;;;;;;;26.70;12.45;;;;;;;10.95;37.63;98117.66;4915205;29;20492;-84
2021/01/20 08:52:55;;;;;;;15.93;6.05;;;;;;;11.73;35.82;98123.09;4914687;29;20052;-82
2021/01/20 08:55:33;;;;;;;9.93;5.25;;;;;;;12.78;35.12;98114.97;4907528;29;20031;-83
2021/01/20 08:58:16;;;;;;;11.45;4.90;;;;;;;13.24;33.20;98123.75;4933916;29;20032;-83
2021/01/20 09:00:43;;;;;;;9.35;5.95;;;;;;;14.86;30.95;98102.03;4930611;29;20087;-83
2021/01/20 09:03:23;;;;;;;14.75;5.88;;;;;;;16.09;29.45;98101.13;4922504;29;20111;-82
2021/01/20 09:05:50;;;;;;;17.45;10.23;;;;;;;17.38;27.34;98101.84;4915055;29;20055;-83
2021/01/20 09:08:16;;;;;;;7.18;4.35;;;;;;;17.76;25.40;98086.06;4931700;29;20032;-83
2021/01/20 09:10:43;;;;;;;11.80;4.90;;;;;;;15.79;28.38;98076.44;4957106;29;20042;-82
2021/01/20 09:13:09;;;;;;;16.27;5.90;;;;;;;15.64;28.95;98094.63;4951231;29;20038;-84
2021/01/20 09:15:34;;;;;;;19.40;7.85;;;;;;;16.06;27.93;98087.88;4945649;29;20035;-83
2021/01/20 09:18:00;;;;;;;10.05;5.40;;;;;;;15.96;28.07;98081.47;4963608;29;20383;-83
2021/01/20 09:20:26;;;;;;;11.05;5.00;;;;;;;15.27;28.74;98084.75;4949031;29;20495;-84
2021/01/20 09:22:51;;;;;;;5.60;3.55;;;;;;;14.18;30.13;98085.22;4954268;28;20039;-83
2021/01/20 09:25:17;;;;;;;17.38;6.93;;;;;;;14.00;31.12;98097.22;4918852;29;20052;-83
2021/01/20 09:27:43;;;;;;;10.68;5.93;;;;;;;13.16;32.62;98088.47;4928032;29;20460;-82
2021/01/20 09:30:09;;;;;;;19.90;7.38;;;;;;;12.59;33.37;98092.91;4925114;29;20024;-84
2021/01/20 09:32:36;;;;;;;12.10;4.53;;;;;;;11.69;34.32;98097.38;4921430;29;20497;-81
2021/01/20 09:35:05;;;;;;;10.52;4.20;;;;;;;11.03;35.46;98094.03;4932720;29;20024;-82
2021/01/20 09:37:31;;;;;;;11.05;5.20;;;;;;;11.11;36.10;98093.56;4953795;29;20467;-83
2021/01/20 09:39:56;;;;;;;10.38;6.15;;;;;;;11.23;35.84;98093.75;4929546;29;20035;-81
2021/01/20 09:42:22;;;;;;;21.88;8.80;;;;;;;11.22;37.24;98093.88;4937256;29;20039;-81
2021/01/20 09:44:47;;;;;;;9.95;5.00;;;;;;;11.02;36.26;98088.72;4929189;29;20035;-84
2021/01/20 09:47:13;;;;;;;13.05;5.95;;;;;;;10.93;37.13;98092.78;4937175;29;20031;-81
2021/01/20 09:49:38;;;;;;;12.55;6.82;;;;;;;10.85;37.10;98095.91;4953183;29;20038;-82
2021/01/20 09:52:04;;;;;;;14.20;5.78;;;;;;;10.60;37.05;98086.59;4924305;29;20035;-81
2021/01/20 09:54:30;;;;;;;11.35;7.72;;;;;;;10.60;37.85;98091.94;4942262;29;20038;-83
2021/01/20 09:56:55;;;;;;;26.13;10.55;;;;;;;10.16;38.97;98088.91;4938153;29;20024;-81
2021/01/20 09:59:21;;;;;;;8.75;5.35;;;;;;;10.22;38.33;98075.22;4923037;29;20036;-81
2021/01/20 10:01:46;;;;;;;15.05;6.63;;;;;;;10.23;38.82;98080.50;4934215;29;20035;-81
2021/01/20 10:04:15;;;;;;;10.00;5.88;;;;;;;10.15;38.75;98072.00;4948416;29;20573;-82
2021/01/20 10:06:40;;;;;;;32.17;4.72;;;;;;;10.27;38.44;98068.69;4944589;29;20039;-81
2021/01/20 10:09:06;;;;;;;10.60;4.50;;;;;;;10.14;38.50;98064.94;4941842;29;20024;-82
2021/01/20 10:11:31;;;;;;;11.75;5.80;;;;;;;10.15;38.68;98065.81;4926140;29;20028;-82
2021/01/20 10:13:57;;;;;;;28.20;5.53;;;;;;;10.19;38.80;98046.84;4920676;29;20115;-81
2021/01/20 10:16:23;;;;;;;37.67;7.43;;;;;;;10.69;39.21;98060.19;4922335;29;20492;-83
2021/01/20 10:18:51;;;;;;;10.10;5.10;;;;;;;11.03;37.79;98064.56;4935810;29;20074;-81
2021/01/20 10:21:16;;;;;;;10.75;5.40;;;;;;;11.13;37.27;98060.44;4942444;29;20028;-82
2021/01/20 10:23:42;;;;;;;7.88;4.55;;;;;;;10.71;37.77;98054.75;4927514;29;20064;-82
2021/01/20 10:26:07;;;;;;;14.90;5.50;;;;;;;10.90;38.09;98044.78;4936853;29;20038;-83
2021/01/20 10:28:33;;;;;;;9.90;5.85;;;;;;;11.13;37.76;98055.09;4944371;29;20039;-83
2021/01/20 10:30:59;;;;;;;11.48;5.32;;;;;;;11.07;37.70;98047.41;4925510;29;20056;-82
2021/01/20 10:33:24;;;;;;;13.75;4.97;;;;;;;11.06;37.77;98044.78;4901948;29;20034;-83
2021/01/20 10:35:50;;;;;;;15.02;7.20;;;;;;;11.13;37.96;98051.53;4911371;29;20027;-83
2021/01/20 10:38:15;;;;;;;18.73;8.05;;;;;;;11.30;37.64;98046.94;4923360;29;20036;-82
2021/01/20 10:40:41;;;;;;;25.33;8.80;;;;;;;11.71;36.77;98041.06;4917216;29;20028;-81
2021/01/20 10:43:06;;;;;;;18.85;7.55;;;;;;;11.99;36.33;98043.84;4919424;29;20036;-81
2021/01/20 10:45:32;;;;;;;25.48;10.60;;;;;;;12.06;36.98;98045.19;4919550;29;20035;-82
2021/01/20 10:47:58;;;;;;;25.15;11.80;;;;;;;12.52;35.94;98053.13;4952083;29;20023;-81
2021/01/20 10:50:23;;;;;;;20.52;8.75;;;;;;;12.70;35.19;98052.00;4923597;29;20106;-82
2021/01/20 10:52:49;;;;;;;14.18;7.18;;;;;;;12.38;36.11;98049.47;4933121;29;20412;-82
2021/01/20 10:55:14;;;;;;;14.90;6.63;;;;;;;12.54;35.89;98044.03;4916976;29;20056;-83
2021/01/20 10:57:40;;;;;;;12.10;6.20;;;;;;;12.55;35.59;98042.22;4932966;29;20024;-82
2021/01/20 11:00:06;;;;;;;16.30;7.78;;;;;;;12.48;35.59;98037.22;4939914;29;20107;-83
2021/01/20 11:02:32;;;;;;;17.17;7.75;;;;;;;12.34;36.51;98037.19;4924448;29;20032;-83
2021/01/20 11:04:57;;;;;;;44.17;16.23;;;;;;;12.75;36.24;98044.50;4919555;29;20411;-82
2021/01/20 11:07:23;;;;;;;7.55;5.15;;;;;;;12.52;35.41;98036.06;4922734;29;20047;-83
2021/01/20 11:09:51;;;;;;;10.00;5.88;;;;;;;12.68;36.14;98044.03;4933913;29;20031;-83
2021/01/20 11:12:17;;;;;;;12.98;5.82;;;;;;;13.19;35.11;98037.22;4951933;28;20040;-83
2021/01/20 11:14:42;;;;;;;15.27;7.45;;;;;;;12.88;35.54;98035.59;4935232;29;20032;-83
2021/01/20 11:17:09;;;;;;;8.55;5.45;;;;;;;12.97;34.80;98035.00;4925019;29;20088;-82
2021/01/20 11:19:34;;;;;;;9.88;5.55;;;;;;;12.48;35.58;98036.34;4925643;29;20043;-82
2021/01/20 11:22:00;;;;;;;15.27;5.90;;;;;;;12.65;35.89;98037.97;4927431;29;20039;-81
2021/01/20 11:24:25;;;;;;;12.25;7.00;;;;;;;13.06;35.58;98038.94;4935533;29;20101;-82
2021/01/20 11:26:51;;;;;;;21.23;7.07;;;;;;;12.88;35.94;98026.69;4944060;29;20043;-82